createdAt,value
2022-08-28T00:00:52.799Z,20.24
2022-08-28T00:05:53.198Z,20.20
2022-08-28T00:10:52.773Z,20.15
2022-08-28T00:15:52.795Z,20.09
2022-08-28T00:20:52.933Z,20.05
2022-08-28T00:25:52.867Z,20.00
2022-08-28T00:30:52.926Z,19.94
2022-08-28T00:35:52.899Z,19.90
2022-08-28T00:40:52.871Z,19.86
2022-08-28T00:45:54.848Z,19.81
2022-08-28T00:51:13.161Z,19.75
2022-08-28T00:56:13.491Z,19.72
2022-08-28T01:01:13.900Z,19.70
2022-08-28T01:06:14.092Z,19.67
2022-08-28T01:11:13.863Z,19.62
2022-08-28T01:16:13.973Z,19.56
2022-08-28T01:21:20.538Z,19.50
2022-08-28T01:26:15.916Z,19.44
2022-08-28T01:31:15.864Z,19.39
2022-08-28T01:36:15.940Z,19.34
2022-08-28T01:41:16.180Z,19.29
2022-08-28T01:46:15.917Z,19.25
2022-08-28T01:51:16.450Z,19.21
2022-08-28T01:56:17.120Z,19.16
2022-08-28T02:01:16.951Z,19.10
2022-08-28T02:06:17.441Z,19.04
2022-08-28T02:11:17.893Z,18.98
2022-08-28T02:16:18.027Z,18.90
2022-08-28T02:21:17.950Z,18.82
2022-08-28T02:26:17.984Z,18.77
2022-08-28T02:31:18.150Z,18.74
2022-08-28T02:36:17.937Z,18.69
2022-08-28T02:41:17.990Z,18.64
2022-08-28T02:46:17.982Z,18.59
2022-08-28T02:51:19.568Z,18.54
2022-08-28T02:56:19.953Z,18.47
2022-08-28T03:01:20.074Z,18.40
2022-08-28T03:06:20.009Z,18.31
2022-08-28T03:11:19.921Z,18.20
2022-08-28T03:16:20.046Z,18.09
2022-08-28T03:21:20.023Z,17.99
2022-08-28T03:26:23.882Z,17.91
2022-08-28T03:31:24.001Z,17.87
2022-08-28T03:36:24.104Z,17.85
2022-08-28T03:41:23.931Z,17.86
2022-08-28T03:46:24.149Z,17.88
2022-08-28T03:51:29.213Z,17.91
2022-08-28T03:56:26.011Z,17.93
2022-08-28T04:01:26.135Z,17.94
2022-08-28T04:06:27.653Z,17.94
2022-08-28T04:11:27.944Z,17.93
2022-08-28T04:16:28.146Z,17.91
2022-08-28T04:21:28.580Z,17.89
2022-08-28T04:26:29.655Z,17.87
2022-08-28T04:31:32.266Z,17.85
2022-08-28T04:36:33.164Z,17.83
2022-08-28T04:41:33.063Z,17.81
2022-08-28T04:46:33.018Z,17.79
2022-08-28T04:51:33.062Z,17.74
2022-08-28T04:56:33.081Z,17.71
2022-08-28T05:01:33.566Z,17.68
2022-08-28T05:06:33.159Z,17.67
2022-08-28T05:11:35.122Z,17.67
2022-08-28T05:16:35.115Z,17.70
2022-08-28T05:21:35.019Z,17.74
2022-08-28T05:26:38.757Z,17.80
2022-08-28T05:31:40.075Z,17.90
2022-08-28T05:36:40.112Z,18.01
2022-08-28T05:41:40.064Z,18.13
2022-08-28T05:46:40.093Z,18.24
2022-08-28T05:51:40.026Z,18.36
2022-08-28T05:56:40.173Z,18.51
2022-08-28T06:01:40.122Z,18.66
2022-08-28T06:06:40.930Z,18.80
2022-08-28T06:11:42.140Z,18.91
2022-08-28T06:16:43.081Z,18.99
2022-08-28T06:21:43.159Z,19.01
2022-08-28T06:26:43.051Z,19.05
2022-08-28T06:31:43.141Z,19.14
2022-08-28T06:36:43.836Z,19.27
2022-08-28T06:41:44.149Z,19.45
2022-08-28T06:46:44.078Z,19.68
2022-08-28T06:51:44.035Z,19.98
2022-08-28T06:56:45.826Z,20.36
2022-08-28T07:01:46.143Z,20.88
2022-08-28T07:06:52.793Z,21.50
2022-08-28T07:11:50.574Z,22.06
2022-08-28T07:16:50.098Z,22.46
2022-08-28T07:21:52.093Z,22.65
2022-08-28T07:26:52.114Z,22.76
2022-08-28T07:31:52.112Z,22.78
2022-08-28T07:36:52.228Z,22.75
2022-08-28T07:41:52.188Z,23.32
2022-08-28T07:46:52.217Z,26.12
2022-08-28T07:51:54.221Z,30.39
2022-08-28T07:56:54.768Z,33.95
2022-08-28T08:01:55.175Z,36.43
2022-08-28T08:06:58.072Z,37.76
2022-08-28T08:11:57.563Z,38.73
2022-08-28T08:16:57.252Z,39.26
2022-08-28T08:21:57.172Z,38.72
2022-08-28T08:26:59.481Z,38.18
2022-08-28T08:32:01.044Z,38.97
2022-08-28T08:37:01.606Z,40.22
2022-08-28T08:42:01.204Z,41.25
2022-08-28T08:47:02.469Z,42.13
2022-08-28T08:52:02.215Z,42.86
2022-08-28T08:57:02.245Z,43.27
2022-08-28T09:02:02.473Z,43.84
2022-08-28T09:07:02.262Z,44.43
2022-08-28T09:12:03.340Z,44.44
2022-08-28T09:17:03.205Z,44.09
2022-08-28T09:22:03.246Z,43.78
2022-08-28T09:27:03.643Z,44.08
2022-08-28T09:29:59.705Z,43.92
2022-08-28T09:35:01.649Z,44.13
2022-08-28T09:40:01.838Z,44.08
2022-08-28T09:45:01.765Z,44.07
2022-08-28T09:50:03.748Z,44.06
2022-08-28T09:55:05.636Z,43.46
2022-08-28T10:00:08.083Z,43.11
2022-08-28T10:05:08.061Z,43.35
2022-08-28T10:10:07.874Z,43.34
2022-08-28T10:15:07.715Z,43.03
2022-08-28T10:20:07.753Z,42.44
2022-08-28T10:25:07.777Z,41.50
2022-08-28T10:30:12.386Z,40.49
2022-08-28T10:35:11.539Z,39.58
2022-08-28T10:40:11.821Z,38.64
2022-08-28T10:45:11.812Z,37.56
2022-08-28T10:50:11.772Z,36.30
2022-08-28T10:55:11.780Z,34.62
2022-08-28T11:00:12.202Z,33.27
2022-08-28T11:05:12.153Z,32.43
2022-08-28T11:10:11.855Z,31.43
2022-08-28T11:15:11.726Z,30.27
2022-08-28T11:20:11.749Z,29.13
2022-08-28T11:25:12.053Z,28.04
2022-08-28T11:30:11.712Z,27.07
2022-08-28T11:35:11.765Z,26.41
2022-08-28T11:40:11.878Z,25.99
2022-08-28T11:45:11.838Z,25.71
2022-08-28T11:50:11.772Z,25.41
2022-08-28T11:55:11.810Z,25.10
2022-08-28T12:00:12.141Z,24.89
2022-08-28T12:05:11.795Z,24.78
2022-08-28T12:10:11.885Z,24.62
2022-08-28T12:15:11.980Z,24.45
2022-08-28T12:20:11.922Z,24.33
2022-08-28T12:25:11.821Z,24.29
2022-08-28T12:30:13.747Z,24.26
2022-08-28T12:35:16.461Z,24.21
2022-08-28T12:40:16.007Z,24.18
2022-08-28T12:45:15.799Z,24.16
2022-08-28T12:50:16.810Z,24.12
2022-08-28T12:55:17.962Z,24.08
2022-08-28T13:00:19.118Z,24.08
2022-08-28T13:05:18.857Z,24.11
2022-08-28T13:10:19.124Z,24.14
2022-08-28T13:15:24.411Z,24.13
2022-08-28T13:20:21.007Z,24.12
2022-08-28T13:25:20.842Z,24.12
2022-08-28T13:30:20.996Z,24.11
2022-08-28T13:35:20.910Z,24.10
2022-08-28T13:45:22.952Z,24.08
2022-08-28T13:50:23.323Z,24.09
2022-08-28T13:55:22.894Z,24.11
2022-08-28T14:00:24.869Z,24.14
2022-08-28T14:05:24.916Z,24.18
2022-08-28T14:10:25.029Z,24.21
2022-08-28T14:15:28.092Z,24.24
2022-08-28T14:20:28.553Z,24.25
2022-08-28T14:25:28.880Z,24.24
2022-08-28T14:30:29.289Z,24.26
2022-08-28T14:35:28.914Z,24.25
2022-08-28T14:40:29.062Z,24.23
2022-08-28T14:45:29.981Z,24.26
2022-08-28T14:50:29.995Z,24.32
2022-08-28T14:55:30.017Z,24.36
2022-08-28T15:00:30.081Z,24.35
2022-08-28T15:05:29.914Z,24.30
2022-08-28T15:10:30.093Z,24.25
2022-08-28T15:15:30.540Z,24.22
2022-08-28T15:20:31.012Z,24.18
2022-08-28T15:25:31.199Z,24.15
2022-08-28T15:30:30.999Z,24.13
2022-08-28T15:35:31.015Z,24.09
2022-08-28T15:40:49.577Z,24.06
2022-08-28T15:45:50.468Z,24.04
2022-08-28T15:50:51.364Z,24.04
2022-08-28T15:55:53.479Z,24.03
2022-08-28T16:00:53.290Z,24.02
2022-08-28T16:05:53.055Z,23.99
2022-08-28T16:10:53.115Z,23.96
2022-08-28T16:15:53.125Z,23.91
2022-08-28T16:20:53.022Z,23.88
2022-08-28T16:25:53.155Z,23.85
2022-08-28T16:30:53.108Z,23.79
2022-08-28T16:35:55.126Z,23.70
2022-08-28T16:40:55.064Z,23.62
2022-08-28T16:45:55.042Z,23.55
2022-08-28T16:50:55.084Z,23.50
2022-08-28T16:55:55.005Z,23.45
2022-08-28T17:00:55.941Z,23.39
2022-08-28T17:05:56.109Z,23.33
2022-08-28T17:10:56.402Z,23.25
2022-08-28T17:15:57.011Z,23.14
2022-08-28T17:21:15.369Z,23.01
2022-08-28T17:26:18.160Z,22.90
2022-08-28T17:31:19.226Z,22.82
2022-08-28T17:36:25.678Z,22.73
2022-08-28T17:41:21.216Z,22.61
2022-08-28T17:46:21.121Z,22.47
2022-08-28T17:51:21.032Z,22.32
2022-08-28T17:56:23.068Z,22.15
2022-08-28T18:01:25.271Z,21.98
2022-08-28T18:06:25.095Z,21.84
2022-08-28T18:11:25.450Z,21.69
2022-08-28T18:16:30.945Z,21.51
2022-08-28T18:21:28.360Z,21.33
2022-08-28T18:26:28.071Z,21.15
2022-08-28T18:31:28.138Z,20.95
2022-08-28T18:36:28.944Z,20.75
2022-08-28T18:41:30.695Z,20.54
2022-08-28T18:46:31.246Z,20.35
2022-08-28T18:51:32.234Z,20.21
2022-08-28T18:56:32.389Z,20.07
2022-08-28T19:01:34.391Z,19.94
2022-08-28T19:06:34.475Z,19.84
2022-08-28T19:11:35.473Z,19.74
2022-08-28T19:16:35.261Z,19.67
2022-08-28T19:21:35.329Z,19.62
2022-08-28T19:26:36.600Z,19.59
2022-08-28T19:31:37.275Z,19.57
2022-08-28T19:36:37.139Z,19.52
2022-08-28T19:41:37.217Z,19.42
2022-08-28T19:46:37.266Z,19.33
2022-08-28T19:51:37.243Z,19.29
2022-08-28T19:56:37.275Z,19.24
2022-08-28T20:01:37.273Z,19.18
2022-08-28T20:06:37.143Z,19.15
2022-08-28T20:11:37.233Z,19.11
2022-08-28T20:16:37.226Z,19.03
2022-08-28T20:21:38.341Z,18.95
2022-08-28T20:26:39.170Z,18.87
2022-08-28T20:31:39.908Z,18.83
2022-08-28T20:36:40.201Z,18.81
2022-08-28T20:41:40.282Z,18.76
2022-08-28T20:46:41.960Z,18.68
2022-08-28T20:51:56.210Z,18.61
2022-08-28T20:56:56.910Z,18.59
2022-08-28T21:01:57.215Z,18.57
2022-08-28T21:06:57.285Z,18.53
2022-08-28T21:11:57.276Z,18.52
2022-08-28T21:16:57.299Z,18.49
2022-08-28T21:21:57.235Z,18.42
2022-08-28T21:26:57.313Z,18.33
2022-08-28T21:31:57.212Z,18.25
2022-08-28T21:36:57.638Z,18.19
2022-08-28T21:41:57.321Z,18.12
2022-08-28T21:46:57.421Z,18.04
2022-08-28T21:51:59.230Z,17.94
2022-08-28T21:56:59.395Z,17.82
2022-08-28T22:01:59.328Z,17.72
2022-08-28T22:06:59.286Z,17.64
2022-08-28T22:12:00.105Z,17.57
2022-08-28T22:17:00.345Z,17.50
2022-08-28T22:22:22.901Z,17.45
2022-08-28T22:27:23.372Z,17.38
2022-08-28T22:32:25.198Z,17.31
2022-08-28T22:37:28.258Z,17.26
2022-08-28T22:42:28.302Z,17.19
2022-08-28T22:47:28.511Z,17.10
2022-08-28T22:52:28.362Z,17.01
2022-08-28T22:57:28.305Z,16.93
2022-08-28T23:02:28.341Z,16.85
2022-08-28T23:07:28.374Z,16.78
2022-08-28T23:12:28.536Z,16.73
2022-08-28T23:17:28.349Z,16.67
2022-08-28T23:22:28.392Z,16.60
2022-08-28T23:27:36.653Z,16.54
2022-08-28T23:32:30.404Z,16.50
2022-08-28T23:37:30.343Z,16.48
2022-08-28T23:42:31.433Z,16.46
2022-08-28T23:47:31.327Z,16.42
2022-08-28T23:52:31.377Z,16.33
2022-08-28T23:57:32.366Z,16.17
